KHFD

Hartford-Brainard Airport

Hartford, Connecticut, USA
METAR KHFD 200053Z 17004KT 10SM CLR M02/M07 A2998 RMK AO2 SLP152 T10221067
Observed Flight Rules
Jan-20 @ 00:53 UTC (26 minutes ago) Visual Flight Rules
Wind Visibility Clouds
170° at 4 knots 10 miles
  • Clear skies
Temperatures Readings
Current -2°C / 28°F
Dewpoint -7°C / 19°F
Humidity 69%
Altimeter 29.98" Hg
Pressure 1015.2 hPa
Elevation 4
METAR KHFD 200053Z 17004KT 10SM CLR M02/M07 A2998 RMK AO2 SLP152 T10221067
Observed Flight Rules
Jan-20 @ 00:53 UTC
(26 minutes ago)
VFR
Wind Visibility
170° at 4 knots 10 miles
Clouds
  • Clear skies
Temperature Dewpoint
-2°C / 28°F -7°C / 19°F
Humidity Altimeter Pressure
69% 29.98" Hg 1015.2 hPa